sensor_id;sensor_type;location;lat;lon;timestamp;temperature;humidity
30280;DHT22;17097;50.916;5.344;2022-10-18T00:01:13;17.10;99.90
30280;DHT22;17097;50.916;5.344;2022-10-18T00:03:39;17.20;99.90
30280;DHT22;17097;50.916;5.344;2022-10-18T00:06:05;17.20;99.90
30280;DHT22;17097;50.916;5.344;2022-10-18T00:08:33;17.20;99.90
30280;DHT22;17097;50.916;5.344;2022-10-18T00:10:59;17.10;99.90
30280;DHT22;17097;50.916;5.344;2022-10-18T00:13:24;17.10;99.90
30280;DHT22;17097;50.916;5.344;2022-10-18T00:15:53;17.10;99.90
30280;DHT22;17097;50.916;5.344;2022-10-18T00:18:19;17.10;99.90
30280;DHT22;17097;50.916;5.344;2022-10-18T00:20:46;17.10;99.90
30280;DHT22;17097;50.916;5.344;2022-10-18T00:23:19;17.10;99.90
30280;DHT22;17097;50.916;5.344;2022-10-18T00:25:45;17.00;99.90
30280;DHT22;17097;50.916;5.344;2022-10-18T00:28:10;17.00;99.90
30280;DHT22;17097;50.916;5.344;2022-10-18T00:30:38;17.10;99.90
30280;DHT22;17097;50.916;5.344;2022-10-18T00:33:04;17.10;99.90
30280;DHT22;17097;50.916;5.344;2022-10-18T00:35:33;17.10;99.90
30280;DHT22;17097;50.916;5.344;2022-10-18T00:37:59;17.00;99.90
30280;DHT22;17097;50.916;5.344;2022-10-18T00:40:25;17.10;99.90
30280;DHT22;17097;50.916;5.344;2022-10-18T00:42:51;17.00;99.90
30280;DHT22;17097;50.916;5.344;2022-10-18T00:45:21;17.00;99.90
30280;DHT22;17097;50.916;5.344;2022-10-18T00:47:50;17.00;99.90
30280;DHT22;17097;50.916;5.344;2022-10-18T00:50:16;17.00;99.90
30280;DHT22;17097;50.916;5.344;2022-10-18T00:52:45;17.00;99.90
30280;DHT22;17097;50.916;5.344;2022-10-18T00:55:12;17.00;99.90
30280;DHT22;17097;50.916;5.344;2022-10-18T00:57:39;17.00;99.90
30280;DHT22;17097;50.916;5.344;2022-10-18T01:00:06;17.00;99.90
30280;DHT22;17097;50.916;5.344;2022-10-18T01:02:37;17.10;99.90
30280;DHT22;17097;50.916;5.344;2022-10-18T01:05:04;17.10;99.90
30280;DHT22;17097;50.916;5.344;2022-10-18T01:07:41;17.10;99.90
30280;DHT22;17097;50.916;5.344;2022-10-18T01:10:20;17.10;99.90
30280;DHT22;17097;50.916;5.344;2022-10-18T01:18:23;17.10;99.90
30280;DHT22;17097;50.916;5.344;2022-10-18T01:31:32;17.00;99.90
30280;DHT22;17097;50.916;5.344;2022-10-18T01:34:00;17.00;99.90
30280;DHT22;17097;50.916;5.344;2022-10-18T01:36:31;17.00;99.90
30280;DHT22;17097;50.916;5.344;2022-10-18T01:38:58;17.00;99.90
30280;DHT22;17097;50.916;5.344;2022-10-18T01:41:25;17.00;99.90
30280;DHT22;17097;50.916;5.344;2022-10-18T01:43:53;17.00;99.90
30280;DHT22;17097;50.916;5.344;2022-10-18T01:46:24;17.00;99.90
30280;DHT22;17097;50.916;5.344;2022-10-18T01:48:51;17.00;99.90
30280;DHT22;17097;50.916;5.344;2022-10-18T01:51:18;17.10;99.90
30280;DHT22;17097;50.916;5.344;2022-10-18T01:53:44;17.10;99.90
30280;DHT22;17097;50.916;5.344;2022-10-18T02:01:48;17.10;99.90
30280;DHT22;17097;50.916;5.344;2022-10-18T02:04:32;17.10;99.90
30280;DHT22;17097;50.916;5.344;2022-10-18T02:07:06;17.10;99.90
30280;DHT22;17097;50.916;5.344;2022-10-18T02:09:39;17.20;99.90
30280;DHT22;17097;50.916;5.344;2022-10-18T02:12:08;17.20;99.90
30280;DHT22;17097;50.916;5.344;2022-10-18T02:14:35;17.20;99.90
30280;DHT22;17097;50.916;5.344;2022-10-18T02:17:02;17.20;99.90
30280;DHT22;17097;50.916;5.344;2022-10-18T02:19:29;17.20;99.90
30280;DHT22;17097;50.916;5.344;2022-10-18T02:21:57;17.20;99.90
30280;DHT22;17097;50.916;5.344;2022-10-18T02:24:24;17.20;99.90
30280;DHT22;17097;50.916;5.344;2022-10-18T02:26:51;17.20;99.90
30280;DHT22;17097;50.916;5.344;2022-10-18T02:29:17;17.20;99.90
30280;DHT22;17097;50.916;5.344;2022-10-18T02:31:43;17.20;99.90
30280;DHT22;17097;50.916;5.344;2022-10-18T02:34:21;17.30;99.90
30280;DHT22;17097;50.916;5.344;2022-10-18T02:36:50;17.30;99.90
30280;DHT22;17097;50.916;5.344;2022-10-18T02:39:17;17.30;99.90
30280;DHT22;17097;50.916;5.344;2022-10-18T02:41:44;17.20;99.90
30280;DHT22;17097;50.916;5.344;2022-10-18T02:44:09;17.20;99.90
30280;DHT22;17097;50.916;5.344;2022-10-18T02:46:38;17.20;99.90
30280;DHT22;17097;50.916;5.344;2022-10-18T02:49:04;17.20;99.90
30280;DHT22;17097;50.916;5.344;2022-10-18T02:51:29;17.20;99.90
30280;DHT22;17097;50.916;5.344;2022-10-18T02:53:55;17.20;99.90
30280;DHT22;17097;50.916;5.344;2022-10-18T02:56:20;17.10;99.90
30280;DHT22;17097;50.916;5.344;2022-10-18T02:58:48;17.20;99.90
30280;DHT22;17097;50.916;5.344;2022-10-18T03:01:14;17.10;99.90
30280;DHT22;17097;50.916;5.344;2022-10-18T03:03:40;17.20;99.90
30280;DHT22;17097;50.916;5.344;2022-10-18T03:06:05;17.20;99.90
30280;DHT22;17097;50.916;5.344;2022-10-18T03:08:31;17.20;99.90
30280;DHT22;17097;50.916;5.344;2022-10-18T03:10:56;17.20;99.90
30280;DHT22;17097;50.916;5.344;2022-10-18T03:13:22;17.20;99.90
30280;DHT22;17097;50.916;5.344;2022-10-18T03:15:47;17.20;99.90
30280;DHT22;17097;50.916;5.344;2022-10-18T03:18:16;17.10;99.90
30280;DHT22;17097;50.916;5.344;2022-10-18T03:20:42;17.20;99.90
30280;DHT22;17097;50.916;5.344;2022-10-18T03:23:10;17.20;99.90
30280;DHT22;17097;50.916;5.344;2022-10-18T03:25:35;17.30;99.90
30280;DHT22;17097;50.916;5.344;2022-10-18T03:28:01;17.20;99.90
30280;DHT22;17097;50.916;5.344;2022-10-18T03:30:26;17.20;99.90
30280;DHT22;17097;50.916;5.344;2022-10-18T03:32:54;17.20;99.90
30280;DHT22;17097;50.916;5.344;2022-10-18T03:35:20;17.20;99.90
30280;DHT22;17097;50.916;5.344;2022-10-18T03:37:46;17.30;99.90
30280;DHT22;17097;50.916;5.344;2022-10-18T03:40:12;17.30;99.90
30280;DHT22;17097;50.916;5.344;2022-10-18T03:42:40;17.20;99.90
30280;DHT22;17097;50.916;5.344;2022-10-18T03:45:06;17.20;99.90
30280;DHT22;17097;50.916;5.344;2022-10-18T03:47:32;17.30;99.90
30280;DHT22;17097;50.916;5.344;2022-10-18T03:49:58;17.40;99.90
30280;DHT22;17097;50.916;5.344;2022-10-18T03:52:23;17.30;99.90
30280;DHT22;17097;50.916;5.344;2022-10-18T03:54:49;17.40;99.90
30280;DHT22;17097;50.916;5.344;2022-10-18T03:57:14;17.30;99.90
30280;DHT22;17097;50.916;5.344;2022-10-18T03:59:40;17.30;99.90
30280;DHT22;17097;50.916;5.344;2022-10-18T04:02:06;17.30;99.90
30280;DHT22;17097;50.916;5.344;2022-10-18T04:04:32;17.30;99.90
30280;DHT22;17097;50.916;5.344;2022-10-18T04:06:57;17.30;99.90
30280;DHT22;17097;50.916;5.344;2022-10-18T04:09:23;17.30;99.90
30280;DHT22;17097;50.916;5.344;2022-10-18T04:11:49;17.30;99.90
30280;DHT22;17097;50.916;5.344;2022-10-18T04:14:15;17.30;99.90
30280;DHT22;17097;50.916;5.344;2022-10-18T04:16:40;17.30;99.90
30280;DHT22;17097;50.916;5.344;2022-10-18T04:19:09;17.30;99.90
30280;DHT22;17097;50.916;5.344;2022-10-18T04:21:35;17.30;99.90
30280;DHT22;17097;50.916;5.344;2022-10-18T04:24:00;17.30;99.90
30280;DHT22;17097;50.916;5.344;2022-10-18T04:26:26;17.30;99.90
30280;DHT22;17097;50.916;5.344;2022-10-18T04:28:51;17.40;99.90
30280;DHT22;17097;50.916;5.344;2022-10-18T04:31:17;17.30;99.90
30280;DHT22;17097;50.916;5.344;2022-10-18T04:33:43;17.40;99.90
30280;DHT22;17097;50.916;5.344;2022-10-18T04:36:08;17.40;99.90
30280;DHT22;17097;50.916;5.344;2022-10-18T04:38:34;17.30;99.90
30280;DHT22;17097;50.916;5.344;2022-10-18T04:40:59;17.30;99.90
30280;DHT22;17097;50.916;5.344;2022-10-18T04:43:25;17.30;99.90
30280;DHT22;17097;50.916;5.344;2022-10-18T04:45:50;17.30;99.90
30280;DHT22;17097;50.916;5.344;2022-10-18T04:48:16;17.40;99.90
30280;DHT22;17097;50.916;5.344;2022-10-18T04:50:42;17.30;99.90
30280;DHT22;17097;50.916;5.344;2022-10-18T04:53:08;17.30;99.90
30280;DHT22;17097;50.916;5.344;2022-10-18T04:55:34;17.40;99.90
30280;DHT22;17097;50.916;5.344;2022-10-18T04:57:59;17.40;99.90
30280;DHT22;17097;50.916;5.344;2022-10-18T05:00:25;17.30;99.90
30280;DHT22;17097;50.916;5.344;2022-10-18T05:02:57;17.30;99.90
30280;DHT22;17097;50.916;5.344;2022-10-18T05:05:23;17.30;99.90
30280;DHT22;17097;50.916;5.344;2022-10-18T05:07:48;17.30;99.90
30280;DHT22;17097;50.916;5.344;2022-10-18T05:10:14;17.40;99.90
30280;DHT22;17097;50.916;5.344;2022-10-18T05:12:41;17.40;99.90
30280;DHT22;17097;50.916;5.344;2022-10-18T05:15:08;17.30;99.90
30280;DHT22;17097;50.916;5.344;2022-10-18T05:17:33;17.30;99.90
30280;DHT22;17097;50.916;5.344;2022-10-18T05:19:59;17.30;99.90
30280;DHT22;17097;50.916;5.344;2022-10-18T05:22:25;17.30;99.90
30280;DHT22;17097;50.916;5.344;2022-10-18T05:24:51;17.30;99.90
30280;DHT22;17097;50.916;5.344;2022-10-18T05:27:17;17.30;99.90
30280;DHT22;17097;50.916;5.344;2022-10-18T05:29:42;17.30;99.90
30280;DHT22;17097;50.916;5.344;2022-10-18T05:32:08;17.40;99.90
30280;DHT22;17097;50.916;5.344;2022-10-18T05:34:34;17.50;99.90
30280;DHT22;17097;50.916;5.344;2022-10-18T05:36:59;17.40;99.90
30280;DHT22;17097;50.916;5.344;2022-10-18T05:39:25;17.30;99.90
30280;DHT22;17097;50.916;5.344;2022-10-18T05:41:51;17.30;99.90
30280;DHT22;17097;50.916;5.344;2022-10-18T05:44:17;17.30;99.90
30280;DHT22;17097;50.916;5.344;2022-10-18T05:46:45;17.30;99.90
30280;DHT22;17097;50.916;5.344;2022-10-18T05:49:11;17.30;99.90
30280;DHT22;17097;50.916;5.344;2022-10-18T05:51:37;17.30;99.90
30280;DHT22;17097;50.916;5.344;2022-10-18T05:54:05;17.30;99.90
30280;DHT22;17097;50.916;5.344;2022-10-18T05:56:31;17.30;99.90
30280;DHT22;17097;50.916;5.344;2022-10-18T05:58:56;17.30;99.90
30280;DHT22;17097;50.916;5.344;2022-10-18T06:01:24;17.30;99.90
30280;DHT22;17097;50.916;5.344;2022-10-18T06:03:50;17.20;99.90
30280;DHT22;17097;50.916;5.344;2022-10-18T06:06:16;17.10;99.90
30280;DHT22;17097;50.916;5.344;2022-10-18T06:08:41;17.20;99.90
30280;DHT22;17097;50.916;5.344;2022-10-18T06:11:15;17.20;99.90
30280;DHT22;17097;50.916;5.344;2022-10-18T06:13:44;17.10;99.90
30280;DHT22;17097;50.916;5.344;2022-10-18T06:16:13;17.20;99.90
30280;DHT22;17097;50.916;5.344;2022-10-18T06:18:39;17.20;99.90
30280;DHT22;17097;50.916;5.344;2022-10-18T06:21:08;17.20;99.90
30280;DHT22;17097;50.916;5.344;2022-10-18T06:23:34;17.20;99.90
30280;DHT22;17097;50.916;5.344;2022-10-18T06:26:00;17.20;99.90
30280;DHT22;17097;50.916;5.344;2022-10-18T06:28:27;17.10;99.90
30280;DHT22;17097;50.916;5.344;2022-10-18T06:30:54;17.20;99.90
30280;DHT22;17097;50.916;5.344;2022-10-18T06:33:20;17.20;99.90
30280;DHT22;17097;50.916;5.344;2022-10-18T06:35:56;17.10;99.90
30280;DHT22;17097;50.916;5.344;2022-10-18T06:38:22;17.10;99.90
30280;DHT22;17097;50.916;5.344;2022-10-18T06:40:48;17.10;99.90
30280;DHT22;17097;50.916;5.344;2022-10-18T06:43:16;17.10;99.90
30280;DHT22;17097;50.916;5.344;2022-10-18T06:45:42;17.10;99.90
30280;DHT22;17097;50.916;5.344;2022-10-18T06:48:08;17.00;99.90
30280;DHT22;17097;50.916;5.344;2022-10-18T06:50:34;17.10;99.90
30280;DHT22;17097;50.916;5.344;2022-10-18T06:53:01;17.10;99.90
30280;DHT22;17097;50.916;5.344;2022-10-18T06:55:31;17.10;99.90
30280;DHT22;17097;50.916;5.344;2022-10-18T06:57:57;17.10;99.90
30280;DHT22;17097;50.916;5.344;2022-10-18T07:00:23;17.10;99.90
30280;DHT22;17097;50.916;5.344;2022-10-18T07:02:49;17.10;99.90
30280;DHT22;17097;50.916;5.344;2022-10-18T07:05:15;17.10;99.90
30280;DHT22;17097;50.916;5.344;2022-10-18T07:07:41;17.10;99.90
30280;DHT22;17097;50.916;5.344;2022-10-18T07:10:07;17.20;99.90
30280;DHT22;17097;50.916;5.344;2022-10-18T07:12:33;17.20;99.90
30280;DHT22;17097;50.916;5.344;2022-10-18T07:14:59;17.30;99.90
30280;DHT22;17097;50.916;5.344;2022-10-18T07:17:25;17.30;99.90
30280;DHT22;17097;50.916;5.344;2022-10-18T07:19:50;17.30;99.90
30280;DHT22;17097;50.916;5.344;2022-10-18T07:22:18;17.30;99.90
30280;DHT22;17097;50.916;5.344;2022-10-18T07:24:46;17.40;99.90
30280;DHT22;17097;50.916;5.344;2022-10-18T07:27:12;17.50;99.90
30280;DHT22;17097;50.916;5.344;2022-10-18T07:29:38;17.40;99.90
30280;DHT22;17097;50.916;5.344;2022-10-18T07:32:04;17.40;99.90
30280;DHT22;17097;50.916;5.344;2022-10-18T07:34:30;17.40;99.90
30280;DHT22;17097;50.916;5.344;2022-10-18T07:36:56;17.40;99.90
30280;DHT22;17097;50.916;5.344;2022-10-18T07:39:21;17.50;99.90
30280;DHT22;17097;50.916;5.344;2022-10-18T07:41:47;17.40;99.90
30280;DHT22;17097;50.916;5.344;2022-10-18T07:44:14;17.50;99.90
30280;DHT22;17097;50.916;5.344;2022-10-18T07:46:40;17.50;99.90
30280;DHT22;17097;50.916;5.344;2022-10-18T07:49:06;17.60;99.90
30280;DHT22;17097;50.916;5.344;2022-10-18T07:51:33;17.70;99.90
30280;DHT22;17097;50.916;5.344;2022-10-18T07:54:00;17.70;99.90
30280;DHT22;17097;50.916;5.344;2022-10-18T07:56:26;17.70;99.90
30280;DHT22;17097;50.916;5.344;2022-10-18T07:58:53;17.70;99.90
30280;DHT22;17097;50.916;5.344;2022-10-18T08:01:20;17.70;99.90
30280;DHT22;17097;50.916;5.344;2022-10-18T08:03:46;17.80;99.90
30280;DHT22;17097;50.916;5.344;2022-10-18T08:06:13;17.80;99.90
30280;DHT22;17097;50.916;5.344;2022-10-18T08:08:39;17.90;99.90
30280;DHT22;17097;50.916;5.344;2022-10-18T08:11:07;17.80;99.90
30280;DHT22;17097;50.916;5.344;2022-10-18T08:13:33;17.90;99.90
30280;DHT22;17097;50.916;5.344;2022-10-18T08:16:00;17.90;99.90
30280;DHT22;17097;50.916;5.344;2022-10-18T08:18:26;17.80;99.90
30280;DHT22;17097;50.916;5.344;2022-10-18T08:20:52;17.80;99.90
30280;DHT22;17097;50.916;5.344;2022-10-18T08:23:18;17.80;99.90
30280;DHT22;17097;50.916;5.344;2022-10-18T08:25:43;17.80;99.90
30280;DHT22;17097;50.916;5.344;2022-10-18T08:28:09;17.80;99.90
30280;DHT22;17097;50.916;5.344;2022-10-18T08:30:35;17.80;99.90
30280;DHT22;17097;50.916;5.344;2022-10-18T08:33:02;17.80;99.90
30280;DHT22;17097;50.916;5.344;2022-10-18T08:35:28;17.80;99.90
30280;DHT22;17097;50.916;5.344;2022-10-18T08:37:54;17.80;99.90
30280;DHT22;17097;50.916;5.344;2022-10-18T08:40:21;17.70;99.90
30280;DHT22;17097;50.916;5.344;2022-10-18T08:43:36;17.60;99.90
30280;DHT22;17097;50.916;5.344;2022-10-18T08:45:35;17.80;99.90
30280;DHT22;17097;50.916;5.344;2022-10-18T08:48:02;17.80;99.90
30280;DHT22;17097;50.916;5.344;2022-10-18T08:50:30;17.80;99.90
30280;DHT22;17097;50.916;5.344;2022-10-18T08:55:44;17.70;99.90
30280;DHT22;17097;50.916;5.344;2022-10-18T08:58:16;17.80;99.90
30280;DHT22;17097;50.916;5.344;2022-10-18T09:00:57;17.90;99.90
30280;DHT22;17097;50.916;5.344;2022-10-18T09:06:10;18.00;99.90
30280;DHT22;17097;50.916;5.344;2022-10-18T09:08:48;18.20;99.90
30280;DHT22;17097;50.916;5.344;2022-10-18T09:19:25;18.40;99.90
30280;DHT22;17097;50.916;5.344;2022-10-18T09:21:57;18.60;99.90
30280;DHT22;17097;50.916;5.344;2022-10-18T09:26:56;18.50;99.90
30280;DHT22;17097;50.916;5.344;2022-10-18T09:34:48;18.60;99.90
30280;DHT22;17097;50.916;5.344;2022-10-18T09:37:09;18.50;99.90
30280;DHT22;17097;50.916;5.344;2022-10-18T09:39:36;18.60;99.90
30280;DHT22;17097;50.916;5.344;2022-10-18T09:42:04;18.70;99.90
30280;DHT22;17097;50.916;5.344;2022-10-18T09:44:35;18.70;99.90
30280;DHT22;17097;50.916;5.344;2022-10-18T09:49:39;18.70;99.90
30280;DHT22;17097;50.916;5.344;2022-10-18T09:52:07;18.40;99.90
30280;DHT22;17097;50.916;5.344;2022-10-18T09:54:34;18.20;99.90
30280;DHT22;17097;50.916;5.344;2022-10-18T09:57:09;18.40;99.90
30280;DHT22;17097;50.916;5.344;2022-10-18T09:59:36;18.20;99.90
30280;DHT22;17097;50.916;5.344;2022-10-18T10:02:04;18.20;99.90
30280;DHT22;17097;50.916;5.344;2022-10-18T10:04:30;18.10;99.90
30280;DHT22;17097;50.916;5.344;2022-10-18T10:06:58;18.10;99.90
30280;DHT22;17097;50.916;5.344;2022-10-18T10:09:43;18.10;99.90
30280;DHT22;17097;50.916;5.344;2022-10-18T10:12:28;18.10;99.90
30280;DHT22;17097;50.916;5.344;2022-10-18T10:14:55;18.30;99.90
30280;DHT22;17097;50.916;5.344;2022-10-18T10:17:30;18.30;99.90
30280;DHT22;17097;50.916;5.344;2022-10-18T10:19:59;18.50;99.90
30280;DHT22;17097;50.916;5.344;2022-10-18T10:22:34;18.40;99.90
30280;DHT22;17097;50.916;5.344;2022-10-18T10:24:59;18.50;99.90
30280;DHT22;17097;50.916;5.344;2022-10-18T10:27:38;18.50;99.90
30280;DHT22;17097;50.916;5.344;2022-10-18T10:32:52;18.60;99.90
30280;DHT22;17097;50.916;5.344;2022-10-18T10:35:20;18.60;99.90
30280;DHT22;17097;50.916;5.344;2022-10-18T10:37:49;18.60;99.90
30280;DHT22;17097;50.916;5.344;2022-10-18T10:40:16;18.70;99.90
30280;DHT22;17097;50.916;5.344;2022-10-18T10:45:15;18.90;99.90
30280;DHT22;17097;50.916;5.344;2022-10-18T10:47:41;19.10;99.90
30280;DHT22;17097;50.916;5.344;2022-10-18T10:50:11;19.20;99.90
30280;DHT22;17097;50.916;5.344;2022-10-18T10:52:37;19.30;99.90
30280;DHT22;17097;50.916;5.344;2022-10-18T10:55:04;19.50;99.90
30280;DHT22;17097;50.916;5.344;2022-10-18T10:57:33;19.50;99.90
30280;DHT22;17097;50.916;5.344;2022-10-18T10:59:58;19.50;99.90
30280;DHT22;17097;50.916;5.344;2022-10-18T11:02:31;19.40;99.90
30280;DHT22;17097;50.916;5.344;2022-10-18T11:07:54;19.40;99.90
30280;DHT22;17097;50.916;5.344;2022-10-18T11:10:21;19.40;99.90
30280;DHT22;17097;50.916;5.344;2022-10-18T11:13:49;19.60;99.90
30280;DHT22;17097;50.916;5.344;2022-10-18T11:15:46;19.80;99.90
30280;DHT22;17097;50.916;5.344;2022-10-18T11:18:17;19.90;99.90
30280;DHT22;17097;50.916;5.344;2022-10-18T11:21:00;19.90;99.90
30280;DHT22;17097;50.916;5.344;2022-10-18T11:23:29;19.90;99.90
30280;DHT22;17097;50.916;5.344;2022-10-18T11:36:52;20.50;99.90
30280;DHT22;17097;50.916;5.344;2022-10-18T11:50:17;20.50;99.90
30280;DHT22;17097;50.916;5.344;2022-10-18T12:00:34;20.60;99.90
30280;DHT22;17097;50.916;5.344;2022-10-18T12:05:51;20.70;99.90
30280;DHT22;17097;50.916;5.344;2022-10-18T12:11:18;21.00;99.90
30280;DHT22;17097;50.916;5.344;2022-10-18T12:13:47;21.20;99.90
30280;DHT22;17097;50.916;5.344;2022-10-18T12:16:15;21.30;99.90
30280;DHT22;17097;50.916;5.344;2022-10-18T12:18:57;21.50;99.90
30280;DHT22;17097;50.916;5.344;2022-10-18T12:21:24;21.50;99.90
30280;DHT22;17097;50.916;5.344;2022-10-18T12:23:52;21.50;99.90
30280;DHT22;17097;50.916;5.344;2022-10-18T12:26:19;21.70;99.90
30280;DHT22;17097;50.916;5.344;2022-10-18T12:28:48;21.60;99.90
30280;DHT22;17097;50.916;5.344;2022-10-18T12:31:21;21.60;99.90
30280;DHT22;17097;50.916;5.344;2022-10-18T12:33:50;21.70;99.90
30280;DHT22;17097;50.916;5.344;2022-10-18T12:39:09;21.60;99.90
30280;DHT22;17097;50.916;5.344;2022-10-18T12:41:32;21.60;99.90
30280;DHT22;17097;50.916;5.344;2022-10-18T12:44:06;21.70;99.90
30280;DHT22;17097;50.916;5.344;2022-10-18T12:46:45;21.60;99.90
30280;DHT22;17097;50.916;5.344;2022-10-18T12:49:12;21.50;99.90
30280;DHT22;17097;50.916;5.344;2022-10-18T12:51:52;21.60;99.90
30280;DHT22;17097;50.916;5.344;2022-10-18T12:54:25;21.70;99.90
30280;DHT22;17097;50.916;5.344;2022-10-18T12:56:52;21.60;99.90
30280;DHT22;17097;50.916;5.344;2022-10-18T13:09:40;21.30;99.90
30280;DHT22;17097;50.916;5.344;2022-10-18T13:14:45;21.60;99.90
30280;DHT22;17097;50.916;5.344;2022-10-18T13:22:18;21.90;99.90
30280;DHT22;17097;50.916;5.344;2022-10-18T13:37:58;21.40;99.90
30280;DHT22;17097;50.916;5.344;2022-10-18T13:40:24;21.30;99.90
30280;DHT22;17097;50.916;5.344;2022-10-18T13:42:50;21.30;99.90
30280;DHT22;17097;50.916;5.344;2022-10-18T13:50:41;21.30;99.90
30280;DHT22;17097;50.916;5.344;2022-10-18T13:55:39;21.40;99.90
30280;DHT22;17097;50.916;5.344;2022-10-18T14:08:37;21.30;99.90
30280;DHT22;17097;50.916;5.344;2022-10-18T14:13:44;21.40;99.90
30280;DHT22;17097;50.916;5.344;2022-10-18T14:17:00;21.30;99.90
30280;DHT22;17097;50.916;5.344;2022-10-18T14:19:07;21.20;99.90
30280;DHT22;17097;50.916;5.344;2022-10-18T14:21:37;21.30;99.90
30280;DHT22;17097;50.916;5.344;2022-10-18T14:24:09;21.50;99.90
30280;DHT22;17097;50.916;5.344;2022-10-18T14:26:41;21.30;99.90
30280;DHT22;17097;50.916;5.344;2022-10-18T14:29:13;21.30;99.90
30280;DHT22;17097;50.916;5.344;2022-10-18T14:31:40;21.20;99.90
30280;DHT22;17097;50.916;5.344;2022-10-18T14:34:11;21.20;99.90
30280;DHT22;17097;50.916;5.344;2022-10-18T14:36:41;21.40;99.90
30280;DHT22;17097;50.916;5.344;2022-10-18T14:39:16;21.20;99.90
30280;DHT22;17097;50.916;5.344;2022-10-18T14:41:47;21.10;99.90
30280;DHT22;17097;50.916;5.344;2022-10-18T14:46:42;21.10;99.90
30280;DHT22;17097;50.916;5.344;2022-10-18T14:49:08;21.10;99.90
30280;DHT22;17097;50.916;5.344;2022-10-18T14:51:35;21.20;99.90
30280;DHT22;17097;50.916;5.344;2022-10-18T14:54:01;21.30;99.90
30280;DHT22;17097;50.916;5.344;2022-10-18T14:56:30;21.50;99.90
30280;DHT22;17097;50.916;5.344;2022-10-18T14:59:00;21.60;99.90
30280;DHT22;17097;50.916;5.344;2022-10-18T15:01:27;21.80;99.90
30280;DHT22;17097;50.916;5.344;2022-10-18T15:03:55;21.80;99.90
30280;DHT22;17097;50.916;5.344;2022-10-18T15:06:23;21.90;99.90
30280;DHT22;17097;50.916;5.344;2022-10-18T15:08:52;22.00;99.90
30280;DHT22;17097;50.916;5.344;2022-10-18T15:11:18;22.20;99.90
30280;DHT22;17097;50.916;5.344;2022-10-18T15:13:54;22.30;99.90
30280;DHT22;17097;50.916;5.344;2022-10-18T15:16:24;22.20;99.90
30280;DHT22;17097;50.916;5.344;2022-10-18T15:21:35;22.30;99.90
30280;DHT22;17097;50.916;5.344;2022-10-18T15:24:17;22.30;99.90
30280;DHT22;17097;50.916;5.344;2022-10-18T15:26:43;22.10;99.90
30280;DHT22;17097;50.916;5.344;2022-10-18T15:29:14;22.00;99.90
30280;DHT22;17097;50.916;5.344;2022-10-18T15:31:40;21.90;99.90
30280;DHT22;17097;50.916;5.344;2022-10-18T15:34:08;21.80;99.90
30280;DHT22;17097;50.916;5.344;2022-10-18T15:36:35;21.80;99.90
30280;DHT22;17097;50.916;5.344;2022-10-18T15:41:39;21.50;99.90
30280;DHT22;17097;50.916;5.344;2022-10-18T15:44:06;21.40;99.90
30280;DHT22;17097;50.916;5.344;2022-10-18T15:46:33;21.30;99.90
30280;DHT22;17097;50.916;5.344;2022-10-18T15:49:30;21.20;99.90
30280;DHT22;17097;50.916;5.344;2022-10-18T15:52:40;21.10;99.90
30280;DHT22;17097;50.916;5.344;2022-10-18T15:54:46;21.10;99.90
30280;DHT22;17097;50.916;5.344;2022-10-18T15:57:12;21.00;99.90
30280;DHT22;17097;50.916;5.344;2022-10-18T15:59:48;20.90;99.90
30280;DHT22;17097;50.916;5.344;2022-10-18T16:02:15;20.80;99.90
30280;DHT22;17097;50.916;5.344;2022-10-18T16:04:41;20.70;99.90
30280;DHT22;17097;50.916;5.344;2022-10-18T16:07:08;20.70;99.90
30280;DHT22;17097;50.916;5.344;2022-10-18T16:09:36;20.70;99.90
30280;DHT22;17097;50.916;5.344;2022-10-18T16:12:04;20.60;99.90
30280;DHT22;17097;50.916;5.344;2022-10-18T16:14:30;20.50;99.90
30280;DHT22;17097;50.916;5.344;2022-10-18T16:16:59;20.50;99.90
30280;DHT22;17097;50.916;5.344;2022-10-18T16:19:25;20.60;99.90
30280;DHT22;17097;50.916;5.344;2022-10-18T16:21:52;20.50;99.90
30280;DHT22;17097;50.916;5.344;2022-10-18T16:24:18;20.40;99.90
30280;DHT22;17097;50.916;5.344;2022-10-18T16:26:44;20.30;99.90
30280;DHT22;17097;50.916;5.344;2022-10-18T16:29:11;20.20;99.90
30280;DHT22;17097;50.916;5.344;2022-10-18T16:31:37;20.10;99.90
30280;DHT22;17097;50.916;5.344;2022-10-18T16:34:03;20.00;99.90
30280;DHT22;17097;50.916;5.344;2022-10-18T16:36:30;19.90;99.90
30280;DHT22;17097;50.916;5.344;2022-10-18T16:39:00;19.90;99.90
30280;DHT22;17097;50.916;5.344;2022-10-18T16:41:27;19.80;99.90
30280;DHT22;17097;50.916;5.344;2022-10-18T16:43:53;19.60;99.90
30280;DHT22;17097;50.916;5.344;2022-10-18T16:46:22;19.60;99.90
30280;DHT22;17097;50.916;5.344;2022-10-18T16:48:48;19.40;99.90
30280;DHT22;17097;50.916;5.344;2022-10-18T16:51:17;19.40;99.90
30280;DHT22;17097;50.916;5.344;2022-10-18T16:53:42;19.40;99.90
30280;DHT22;17097;50.916;5.344;2022-10-18T16:56:11;19.30;99.90
30280;DHT22;17097;50.916;5.344;2022-10-18T16:58:37;19.20;99.90
30280;DHT22;17097;50.916;5.344;2022-10-18T17:01:03;19.10;99.90
30280;DHT22;17097;50.916;5.344;2022-10-18T17:03:29;19.00;99.90
30280;DHT22;17097;50.916;5.344;2022-10-18T17:05:55;19.00;99.90
30280;DHT22;17097;50.916;5.344;2022-10-18T17:08:22;18.90;99.90
30280;DHT22;17097;50.916;5.344;2022-10-18T17:10:49;18.80;99.90
30280;DHT22;17097;50.916;5.344;2022-10-18T17:13:17;18.70;99.90
30280;DHT22;17097;50.916;5.344;2022-10-18T17:15:43;18.60;99.90
30280;DHT22;17097;50.916;5.344;2022-10-18T17:18:09;18.50;99.90
30280;DHT22;17097;50.916;5.344;2022-10-18T17:20:35;18.40;99.90
30280;DHT22;17097;50.916;5.344;2022-10-18T17:23:01;18.40;99.90
30280;DHT22;17097;50.916;5.344;2022-10-18T17:25:29;18.40;99.90
30280;DHT22;17097;50.916;5.344;2022-10-18T17:27:54;18.30;99.90
30280;DHT22;17097;50.916;5.344;2022-10-18T17:30:20;18.30;99.90
30280;DHT22;17097;50.916;5.344;2022-10-18T17:32:46;18.20;99.90
30280;DHT22;17097;50.916;5.344;2022-10-18T17:35:12;18.10;99.90
30280;DHT22;17097;50.916;5.344;2022-10-18T17:37:38;18.10;99.90
30280;DHT22;17097;50.916;5.344;2022-10-18T17:40:07;18.00;99.90
30280;DHT22;17097;50.916;5.344;2022-10-18T17:42:33;18.10;99.90
30280;DHT22;17097;50.916;5.344;2022-10-18T17:44:58;18.00;99.90
30280;DHT22;17097;50.916;5.344;2022-10-18T17:47:24;17.90;99.90
30280;DHT22;17097;50.916;5.344;2022-10-18T17:49:49;17.90;99.90
30280;DHT22;17097;50.916;5.344;2022-10-18T17:52:15;17.80;99.90
30280;DHT22;17097;50.916;5.344;2022-10-18T17:54:41;17.70;99.90
30280;DHT22;17097;50.916;5.344;2022-10-18T17:57:07;17.70;99.90
30280;DHT22;17097;50.916;5.344;2022-10-18T17:59:32;17.60;99.90
30280;DHT22;17097;50.916;5.344;2022-10-18T18:01:58;17.50;99.90
30280;DHT22;17097;50.916;5.344;2022-10-18T18:04:24;17.40;99.90
30280;DHT22;17097;50.916;5.344;2022-10-18T18:06:50;17.40;99.90